LIPH/TSF METAR and TAF weather

Enter ICAO airport designator
Station Type Date Time Source
LIPH METAR 2020/02/24 07:50 UTC NOAA

LIPH 240750Z 35003KT 3000 BR NSC 08/06 Q1020


Station Type Date Time Source
LIPH Decoded METAR 2020/02/24 07:50 UTC NOAA

Treviso / S. Angelo, Italy (LIPH) 45-39N 012-11E 23M
Feb 24, 2020 - 02:50 AM EST / 2020.02.24 0750 UTC
Wind: from the N (350 degrees) at 3 MPH (3 KT):0
Visibility: 1 mile(s):0
Weather: mist
Temperature: 46 F (8 C)
Dew Point: 42 F (6 C)
Relative Humidity: 87%
Pressure (altimeter): 30.12 in. Hg (1020 hPa)
ob: LIPH 240750Z 35003KT 3000 BR NSC 08/06 Q1020
cycle: 8

Station Type Date Time Source
LIPH TAF 2020/02/24 06:25 UTC NOAA

TAF LIPH 240500Z 2406/2506 VRB04KT 3000 BR NSC
TEMPO 2406/2409 1200 BCFG BKN002
BECMG 2410/2412 6000
BECMG 2418/2420 2000 BR
TEMPO 2422/2506 0800 FG

Example: see airport list